createdAt,value
2022-12-08T00:00:00.280Z,99541.38
2022-12-08T00:02:31.362Z,99537.67
2022-12-08T00:05:19.870Z,99543.23
2022-12-08T00:08:10.398Z,99541.88
2022-12-08T00:10:51.048Z,99549.13
2022-12-08T00:13:21.996Z,99550.27
2022-12-08T00:15:53.043Z,99554.80
2022-12-08T00:18:23.885Z,99558.66
2022-12-08T00:20:59.509Z,99561.35
2022-12-08T00:23:30.322Z,99565.58
2022-12-08T00:26:05.407Z,99565.25
2022-12-08T00:28:36.558Z,99569.33
2022-12-08T00:31:12.167Z,99574.08
2022-12-08T00:33:43.047Z,99578.16
2022-12-08T00:36:15.971Z,99581.23
2022-12-08T00:38:48.433Z,99587.64
2022-12-08T00:41:41.050Z,99587.64
2022-12-08T00:44:14.335Z,99588.83
2022-12-08T00:46:45.991Z,99593.39
2022-12-08T00:49:17.655Z,99600.14
2022-12-08T00:51:48.607Z,99603.83
2022-12-08T00:54:20.067Z,99604.02
2022-12-08T00:56:50.909Z,99609.06
2022-12-08T00:59:22.301Z,99607.21
2022-12-08T01:01:53.191Z,99612.45
2022-12-08T01:04:24.024Z,99611.78
2022-12-08T01:06:54.963Z,99612.14
2022-12-08T01:09:26.011Z,99613.52
2022-12-08T01:11:57.186Z,99617.54
2022-12-08T01:14:28.117Z,99621.23
2022-12-08T01:16:59.193Z,99622.04
2022-12-08T01:19:31.022Z,99624.23
2022-12-08T01:22:01.935Z,99625.73
2022-12-08T01:24:32.957Z,99623.05
2022-12-08T01:27:03.803Z,99626.95
2022-12-08T01:29:34.906Z,99626.11
2022-12-08T01:32:06.187Z,99626.45
2022-12-08T01:34:37.304Z,99627.29
2022-12-08T01:37:10.746Z,99624.45
2022-12-08T01:39:41.768Z,99625.77
2022-12-08T01:42:24.379Z,99621.02
2022-12-08T01:45:01.367Z,99624.02
2022-12-08T01:47:39.201Z,99624.54
2022-12-08T01:50:14.438Z,99623.88
2022-12-08T01:52:50.678Z,99631.48
2022-12-08T01:55:27.104Z,99636.36
2022-12-08T01:58:01.715Z,99637.34
2022-12-08T02:00:32.623Z,99637.15
2022-12-08T02:03:05.849Z,99638.48
2022-12-08T02:05:40.068Z,99640.44
2022-12-08T02:08:14.046Z,99636.70
2022-12-08T02:10:47.780Z,99637.52
2022-12-08T02:13:21.570Z,99637.35
2022-12-08T02:16:05.132Z,99635.82
2022-12-08T02:19:02.100Z,99631.95
2022-12-08T02:21:49.354Z,99634.45
2022-12-08T02:24:31.835Z,99638.34
2022-12-08T02:27:29.658Z,99639.51
2022-12-08T02:30:14.305Z,99637.95
2022-12-08T02:33:20.908Z,99636.07
2022-12-08T02:35:59.620Z,99632.83
2022-12-08T02:38:47.254Z,99634.33
2022-12-08T02:41:30.486Z,99634.10
2022-12-08T02:44:07.561Z,99635.29
2022-12-08T02:46:42.777Z,99635.45
2022-12-08T02:49:14.780Z,99640.16
2022-12-08T02:51:45.644Z,99643.00
2022-12-08T02:54:17.248Z,99641.63
2022-12-08T02:57:01.514Z,99644.48
2022-12-08T02:59:45.970Z,99650.20
2022-12-08T03:02:37.560Z,99649.70
2022-12-08T03:05:14.973Z,99655.59
2022-12-08T03:07:52.235Z,99656.23
2022-12-08T03:10:30.767Z,99663.33
2022-12-08T03:13:07.066Z,99658.27
2022-12-08T03:15:39.610Z,99664.34
2022-12-08T03:18:16.760Z,99664.52
2022-12-08T03:20:49.101Z,99667.50
2022-12-08T03:23:21.477Z,99667.77
2022-12-08T03:25:57.851Z,99669.56
2022-12-08T03:28:28.701Z,99675.23
2022-12-08T03:31:06.345Z,99681.08
2022-12-08T03:33:41.309Z,99683.41
2022-12-08T03:36:14.831Z,99682.39
2022-12-08T03:38:48.022Z,99685.77
2022-12-08T03:41:19.780Z,99682.90
2022-12-08T03:43:51.842Z,99687.46
2022-12-08T03:48:55.532Z,99689.66
2022-12-08T03:51:28.237Z,99696.55
2022-12-08T03:53:59.175Z,99691.34
2022-12-08T03:56:32.408Z,99693.73
2022-12-08T03:59:03.620Z,99688.38
2022-12-08T04:01:34.759Z,99689.35
2022-12-08T04:04:05.862Z,99695.44
2022-12-08T04:06:36.850Z,99697.11
2022-12-08T04:09:07.790Z,99702.52
2022-12-08T04:11:38.652Z,99703.04
2022-12-08T04:14:09.571Z,99705.27
2022-12-08T04:16:40.535Z,99708.52
2022-12-08T04:19:11.394Z,99711.08
2022-12-08T04:21:42.188Z,99710.77
2022-12-08T04:24:12.986Z,99713.02
2022-12-08T04:26:43.860Z,99717.09
2022-12-08T04:29:14.715Z,99714.96
2022-12-08T04:31:45.607Z,99716.02
2022-12-08T04:34:16.504Z,99717.41
2022-12-08T04:36:47.325Z,99720.09
2022-12-08T04:39:18.266Z,99721.63
2022-12-08T04:41:49.017Z,99728.39
2022-12-08T04:44:20.072Z,99727.36
2022-12-08T04:46:50.848Z,99729.38
2022-12-08T04:49:21.738Z,99731.73
2022-12-08T04:51:52.566Z,99734.23
2022-12-08T04:54:23.344Z,99735.21
2022-12-08T04:56:54.224Z,99730.13
2022-12-08T04:59:25.029Z,99729.39
2022-12-08T05:01:56.209Z,99732.58
2022-12-08T05:04:27.455Z,99737.08
2022-12-08T05:06:58.735Z,99741.45
2022-12-08T05:09:29.947Z,99744.32
2022-12-08T05:12:00.749Z,99744.33
2022-12-08T05:14:31.731Z,99749.89
2022-12-08T05:17:07.777Z,99751.42
2022-12-08T05:19:40.257Z,99750.39
2022-12-08T05:22:11.408Z,99755.09
2022-12-08T05:24:47.449Z,99755.89
2022-12-08T05:27:18.892Z,99755.88
2022-12-08T05:29:50.377Z,99755.02
2022-12-08T05:32:21.227Z,99746.94
2022-12-08T05:34:52.091Z,99750.81
2022-12-08T05:37:22.880Z,99750.27
2022-12-08T05:39:54.177Z,99752.78
2022-12-08T05:42:25.337Z,99751.88
2022-12-08T05:44:56.325Z,99751.84
2022-12-08T05:47:28.879Z,99753.67
2022-12-08T05:50:02.872Z,99749.92
2022-12-08T05:52:34.468Z,99750.72
2022-12-08T05:55:06.234Z,99750.64
2022-12-08T05:57:37.085Z,99750.91
2022-12-08T06:00:10.650Z,99759.43
2022-12-08T06:02:44.590Z,99764.56
2022-12-08T06:05:15.849Z,99776.13
2022-12-08T06:07:46.815Z,99779.95
2022-12-08T06:10:17.736Z,99789.46
2022-12-08T06:12:48.612Z,99799.02
2022-12-08T06:15:19.910Z,99798.71
2022-12-08T06:17:51.046Z,99801.62
2022-12-08T06:20:21.857Z,99804.54
2022-12-08T06:22:52.699Z,99808.85
2022-12-08T06:25:23.866Z,99814.48
2022-12-08T06:27:54.760Z,99813.39
2022-12-08T06:30:26.260Z,99814.34
2022-12-08T06:32:57.097Z,99813.57
2022-12-08T06:35:28.035Z,99815.52
2022-12-08T06:37:58.861Z,99809.70
2022-12-08T06:40:29.802Z,99809.95
2022-12-08T06:43:01.213Z,99806.97
2022-12-08T06:45:32.056Z,99809.52
2022-12-08T06:48:04.256Z,99811.23
2022-12-08T06:50:36.026Z,99816.64
2022-12-08T06:53:06.873Z,99816.30
2022-12-08T06:58:28.614Z,99824.63
2022-12-08T07:00:59.513Z,99828.54
2022-12-08T07:03:30.417Z,99830.75
2022-12-08T07:06:04.200Z,99828.94
2022-12-08T07:08:36.175Z,99828.15
2022-12-08T07:11:15.317Z,99832.05
2022-12-08T07:13:51.423Z,99830.58
2022-12-08T07:16:22.587Z,99831.98
2022-12-08T07:18:53.565Z,99838.27
2022-12-08T07:21:25.999Z,99837.01
2022-12-08T07:24:00.747Z,99838.42
2022-12-08T07:26:31.575Z,99843.88
2022-12-08T07:29:06.226Z,99849.73
2022-12-08T07:31:38.145Z,99858.46
2022-12-08T07:34:09.160Z,99852.98
2022-12-08T07:36:40.345Z,99850.44
2022-12-08T07:39:11.780Z,99848.09
2022-12-08T07:41:42.796Z,99846.88
2022-12-08T07:44:13.710Z,99844.89
2022-12-08T07:46:44.644Z,99847.42
2022-12-08T07:49:15.576Z,99847.27
2022-12-08T07:51:46.418Z,99845.80
2022-12-08T07:54:17.358Z,99845.23
2022-12-08T07:56:48.227Z,99842.88
2022-12-08T07:59:19.358Z,99835.86
2022-12-08T08:02:21.006Z,99834.77
2022-12-08T08:04:46.054Z,99838.02
2022-12-08T08:07:20.894Z,99834.77
2022-12-08T08:09:51.800Z,99829.59
2022-12-08T08:12:32.361Z,99830.30
2022-12-08T08:15:05.081Z,99834.22
2022-12-08T08:17:37.069Z,99831.69
2022-12-08T08:20:11.246Z,99833.27
2022-12-08T08:22:42.113Z,99835.96
2022-12-08T08:25:14.569Z,99844.11
2022-12-08T08:27:50.972Z,99846.63
2022-12-08T08:30:22.731Z,99849.60
2022-12-08T08:32:53.728Z,99849.89
2022-12-08T08:35:25.182Z,99846.21
2022-12-08T08:37:56.643Z,99846.34
2022-12-08T08:40:27.568Z,99850.00
2022-12-08T08:42:58.413Z,99850.03
2022-12-08T08:45:29.323Z,99844.75
2022-12-08T08:48:00.178Z,99837.20
2022-12-08T08:50:35.963Z,99842.35
2022-12-08T08:53:08.465Z,99844.77
2022-12-08T08:55:41.398Z,99846.41
2022-12-08T08:58:12.260Z,99851.20
2022-12-08T09:00:43.309Z,99851.96
2022-12-08T09:03:14.488Z,99853.63
2022-12-08T09:05:45.412Z,99856.30
2022-12-08T09:08:16.469Z,99854.00
2022-12-08T09:10:47.421Z,99857.91
2022-12-08T09:13:18.326Z,99858.13
2022-12-08T09:15:49.404Z,99860.13
2022-12-08T09:18:20.553Z,99860.78
2022-12-08T09:20:51.903Z,99858.17
2022-12-08T09:23:22.730Z,99858.35
2022-12-08T09:25:56.594Z,99856.23
2022-12-08T09:28:27.367Z,99856.73
2022-12-08T09:30:59.485Z,99858.59
2022-12-08T09:33:31.431Z,99855.21
2022-12-08T09:36:06.465Z,99856.20
2022-12-08T09:38:38.881Z,99859.15
2022-12-08T09:41:21.902Z,99852.76
2022-12-08T09:44:08.341Z,99844.94
2022-12-08T09:46:40.811Z,99847.98
2022-12-08T09:49:19.954Z,99848.55
2022-12-08T09:51:50.903Z,99848.98
2022-12-08T09:54:26.270Z,99844.02
2022-12-08T09:57:02.306Z,99844.02
2022-12-08T09:59:35.745Z,99843.67
2022-12-08T10:02:20.306Z,99849.42
2022-12-08T10:04:51.595Z,99845.15
2022-12-08T10:07:30.853Z,99844.05
2022-12-08T10:10:08.851Z,99843.55
2022-12-08T10:12:47.791Z,99844.04
2022-12-08T10:15:37.776Z,99848.28
2022-12-08T10:18:18.255Z,99844.55
2022-12-08T10:20:51.102Z,99838.17
2022-12-08T10:23:36.000Z,99834.42
2022-12-08T10:26:09.103Z,99834.48
2022-12-08T10:28:44.772Z,99832.52
2022-12-08T10:31:22.189Z,99829.52
2022-12-08T10:33:59.293Z,99825.15
2022-12-08T10:36:48.017Z,99825.67
2022-12-08T10:39:39.635Z,99825.34
2022-12-08T10:42:22.648Z,99830.77
2022-12-08T10:45:03.890Z,99824.44
2022-12-08T10:47:42.509Z,99830.02
2022-12-08T10:50:24.662Z,99821.48
2022-12-08T10:53:04.579Z,99824.48
2022-12-08T10:55:47.042Z,99819.70
2022-12-08T10:58:42.334Z,99817.29
2022-12-08T11:01:18.550Z,99817.09
2022-12-08T11:03:52.799Z,99814.16
2022-12-08T11:06:26.552Z,99815.30
2022-12-08T11:09:01.092Z,99812.05
2022-12-08T11:11:46.015Z,99817.90
2022-12-08T11:14:23.857Z,99814.08
2022-12-08T11:16:57.227Z,99805.52
2022-12-08T11:19:29.091Z,99800.73
2022-12-08T11:22:00.190Z,99799.86
2022-12-08T11:24:37.843Z,99796.13
2022-12-08T11:27:09.857Z,99790.52
2022-12-08T11:29:41.105Z,99787.11
2022-12-08T11:32:15.462Z,99784.04
2022-12-08T11:34:51.995Z,99787.52
2022-12-08T11:37:34.682Z,99786.80
2022-12-08T11:40:16.445Z,99787.09
2022-12-08T11:42:55.989Z,99783.34
2022-12-08T11:45:31.543Z,99781.79
2022-12-08T11:48:12.051Z,99783.11
2022-12-08T11:50:48.916Z,99779.39
2022-12-08T11:53:27.901Z,99776.66
2022-12-08T11:56:03.376Z,99779.85
2022-12-08T11:58:43.318Z,99775.44
2022-12-08T12:01:21.167Z,99773.52
2022-12-08T12:04:00.805Z,99776.54
2022-12-08T12:06:55.091Z,99777.52
2022-12-08T12:09:39.839Z,99773.58
2022-12-08T12:12:23.089Z,99776.60
2022-12-08T12:15:24.361Z,99778.92
2022-12-08T12:18:00.909Z,99777.71
2022-12-08T12:20:36.254Z,99776.56
2022-12-08T12:23:15.825Z,99777.60
2022-12-08T12:25:56.857Z,99771.36
2022-12-08T12:28:32.036Z,99763.59
2022-12-08T12:31:08.048Z,99762.77
2022-12-08T12:33:39.446Z,99761.60
2022-12-08T12:36:13.006Z,99757.05
2022-12-08T12:39:06.359Z,99751.79
2022-12-08T12:41:48.425Z,99747.21
2022-12-08T12:44:38.466Z,99747.38
2022-12-08T12:47:14.809Z,99748.23
2022-12-08T12:50:08.944Z,99750.08
2022-12-08T12:52:51.559Z,99753.96
2022-12-08T12:55:55.949Z,99747.11
2022-12-08T12:58:43.094Z,99742.95
2022-12-08T13:01:50.800Z,99741.34
2022-12-08T13:04:36.380Z,99737.08
2022-12-08T13:07:09.275Z,99731.67
2022-12-08T13:09:41.709Z,99730.98
2022-12-08T13:12:24.525Z,99730.31
2022-12-08T13:15:00.506Z,99731.14
2022-12-08T13:17:36.090Z,99732.96
2022-12-08T13:20:21.828Z,99736.33
2022-12-08T13:23:12.179Z,99739.34
2022-12-08T13:26:12.223Z,99741.89
2022-12-08T13:29:19.427Z,99734.63
2022-12-08T13:31:52.869Z,99727.39
2022-12-08T13:34:31.553Z,99729.42
2022-12-08T13:37:23.403Z,99726.71
2022-12-08T13:40:00.324Z,99723.67
2022-12-08T13:42:42.176Z,99721.30
2022-12-08T13:45:48.614Z,99722.94
2022-12-08T13:48:35.262Z,99724.09
2022-12-08T13:53:28.427Z,99721.90
2022-12-08T13:57:10.552Z,99718.19
2022-12-08T13:59:46.712Z,99714.43
2022-12-08T14:02:27.319Z,99711.02
2022-12-08T14:07:53.490Z,99710.70
2022-12-08T14:10:28.362Z,99713.73
2022-12-08T14:13:02.422Z,99714.70
2022-12-08T14:15:38.294Z,99711.28
2022-12-08T14:18:25.777Z,99711.91
2022-12-08T14:21:21.145Z,99710.02
2022-12-08T14:23:52.592Z,99710.83
2022-12-08T14:26:23.561Z,99708.62
2022-12-08T14:28:54.839Z,99711.96
2022-12-08T14:31:28.898Z,99714.31
2022-12-08T14:33:59.867Z,99716.16
2022-12-08T14:36:33.466Z,99717.00
2022-12-08T14:39:05.311Z,99722.75
2022-12-08T14:41:36.218Z,99716.89
2022-12-08T14:44:21.409Z,99720.30
2022-12-08T14:49:49.158Z,99720.58
2022-12-08T14:52:20.070Z,99721.27
2022-12-08T14:54:57.288Z,99722.44
2022-12-08T14:57:37.638Z,99717.39
2022-12-08T15:00:22.010Z,99719.41
2022-12-08T15:02:52.954Z,99718.57
2022-12-08T15:05:30.711Z,99717.05
2022-12-08T15:08:05.731Z,99714.67
2022-12-08T15:10:39.988Z,99714.80
2022-12-08T15:13:23.975Z,99711.40
2022-12-08T15:15:56.824Z,99715.27
2022-12-08T15:18:37.290Z,99712.58
2022-12-08T15:21:12.899Z,99710.71
2022-12-08T15:23:46.790Z,99708.86
2022-12-08T15:26:22.328Z,99707.15
2022-12-08T15:28:53.862Z,99709.50
2022-12-08T15:31:24.767Z,99709.52
2022-12-08T15:33:55.829Z,99707.83
2022-12-08T15:36:26.718Z,99709.04
2022-12-08T15:38:57.814Z,99706.84
2022-12-08T15:41:28.650Z,99710.09
2022-12-08T15:43:59.505Z,99707.76
2022-12-08T15:46:30.522Z,99705.42
2022-12-08T15:49:01.570Z,99704.75
2022-12-08T15:51:36.527Z,99708.63
2022-12-08T15:54:07.760Z,99711.35
2022-12-08T15:56:45.464Z,99711.05
2022-12-08T15:59:23.915Z,99713.25
2022-12-08T16:01:55.262Z,99714.45
2022-12-08T16:07:24.435Z,99709.58
2022-12-08T16:09:56.271Z,99709.56
2022-12-08T16:13:48.285Z,99707.86
2022-12-08T16:15:53.637Z,99715.27
2022-12-08T16:18:34.487Z,99713.58
2022-12-08T16:21:16.901Z,99715.58
2022-12-08T16:23:57.230Z,99715.60
2022-12-08T16:27:28.453Z,99716.62
2022-12-08T16:29:22.660Z,99712.25
2022-12-08T16:31:53.550Z,99711.07
2022-12-08T16:34:24.650Z,99706.52
2022-12-08T16:36:55.589Z,99704.34
2022-12-08T16:39:26.779Z,99704.67
2022-12-08T16:42:15.353Z,99701.13
2022-12-08T16:44:46.549Z,99704.33
2022-12-08T16:47:17.636Z,99704.29
2022-12-08T16:49:48.731Z,99706.44
2022-12-08T16:52:19.888Z,99705.78
2022-12-08T16:54:50.816Z,99705.77
2022-12-08T16:57:21.977Z,99709.45
2022-12-08T16:59:53.186Z,99708.94
2022-12-08T17:02:24.746Z,99707.08
2022-12-08T17:05:00.347Z,99706.58
2022-12-08T17:07:32.110Z,99707.25
2022-12-08T17:10:06.388Z,99701.54
2022-12-08T17:12:38.113Z,99698.33
2022-12-08T17:15:12.697Z,99699.36
2022-12-08T17:17:43.811Z,99695.49
2022-12-08T17:20:17.927Z,99697.68
2022-12-08T17:22:49.939Z,99697.70
2022-12-08T17:25:21.215Z,99699.02
2022-12-08T17:27:52.319Z,99695.96
2022-12-08T17:30:23.643Z,99689.36
2022-12-08T17:32:54.561Z,99697.29
2022-12-08T17:35:25.985Z,99695.41
2022-12-08T17:37:57.103Z,99699.77
2022-12-08T17:40:28.515Z,99701.13
2022-12-08T17:42:59.937Z,99704.17
2022-12-08T17:45:31.060Z,99706.71
2022-12-08T17:48:02.046Z,99708.73
2022-12-08T17:50:32.978Z,99712.09
2022-12-08T17:53:03.814Z,99711.94
2022-12-08T17:55:34.925Z,99710.76
2022-12-08T17:58:06.683Z,99711.93
2022-12-08T18:00:38.171Z,99715.33
2022-12-08T18:03:08.974Z,99716.02
2022-12-08T18:05:40.072Z,99716.05
2022-12-08T18:08:11.882Z,99719.13
2022-12-08T18:10:43.064Z,99718.33
2022-12-08T18:13:13.953Z,99719.35
2022-12-08T18:15:46.994Z,99717.54
2022-12-08T18:18:20.295Z,99713.66
2022-12-08T18:20:51.418Z,99714.02
2022-12-08T18:23:22.233Z,99714.89
2022-12-08T18:25:54.618Z,99709.16
2022-12-08T18:28:26.896Z,99709.17
2022-12-08T18:30:57.992Z,99708.80
2022-12-08T18:33:29.289Z,99706.92
2022-12-08T18:36:03.087Z,99699.98
2022-12-08T18:38:34.823Z,99700.30
2022-12-08T18:41:10.489Z,99698.45
2022-12-08T18:43:41.869Z,99697.45
2022-12-08T18:46:15.024Z,99694.58
2022-12-08T18:48:49.273Z,99696.30
2022-12-08T18:51:23.285Z,99697.14
2022-12-08T18:53:54.566Z,99695.80
2022-12-08T18:56:27.801Z,99695.80
2022-12-08T18:59:03.585Z,99695.61
2022-12-08T19:01:36.425Z,99693.58
2022-12-08T19:04:27.853Z,99690.20
2022-12-08T19:07:01.648Z,99689.49
2022-12-08T19:09:32.689Z,99689.65
2022-12-08T19:12:04.087Z,99692.00
2022-12-08T19:14:35.610Z,99693.85
2022-12-08T19:17:06.874Z,99697.02
2022-12-08T19:19:38.367Z,99696.80
2022-12-08T19:22:09.697Z,99705.05
2022-12-08T19:24:40.634Z,99707.86
2022-12-08T19:27:11.620Z,99702.89
2022-12-08T19:29:42.628Z,99707.06
2022-12-08T19:32:13.613Z,99700.92
2022-12-08T19:34:44.454Z,99701.88
2022-12-08T19:37:17.485Z,99698.63
2022-12-08T19:40:06.469Z,99698.89
2022-12-08T19:42:55.473Z,99698.48
2022-12-08T19:45:27.748Z,99695.36
2022-12-08T19:47:58.717Z,99693.79
2022-12-08T19:50:39.217Z,99694.70
2022-12-08T19:53:12.127Z,99690.73
2022-12-08T19:55:43.747Z,99688.65
2022-12-08T19:58:14.985Z,99690.92
2022-12-08T20:00:46.575Z,99690.69
2022-12-08T20:03:19.888Z,99695.02
2022-12-08T20:05:53.961Z,99696.98
2022-12-08T20:08:25.029Z,99700.80
2022-12-08T20:10:59.201Z,99697.38
2022-12-08T20:13:44.726Z,99698.19
2022-12-08T20:16:17.136Z,99700.83
2022-12-08T20:18:48.831Z,99699.59
2022-12-08T20:21:20.491Z,99699.39
2022-12-08T20:23:51.483Z,99700.38
2022-12-08T20:26:24.900Z,99703.20
2022-12-08T20:28:55.993Z,99702.34
2022-12-08T20:31:29.130Z,99700.12
2022-12-08T20:34:00.140Z,99699.23
2022-12-08T20:36:31.569Z,99695.81
2022-12-08T20:39:02.870Z,99697.80
2022-12-08T20:41:38.813Z,99702.52
2022-12-08T20:44:10.845Z,99697.27
2022-12-08T20:46:47.753Z,99701.64
2022-12-08T20:49:20.186Z,99701.59
2022-12-08T20:51:51.329Z,99704.77
2022-12-08T20:54:22.582Z,99705.39
2022-12-08T20:56:53.654Z,99708.73
2022-12-08T20:59:26.377Z,99706.36
2022-12-08T21:01:57.630Z,99710.72
2022-12-08T21:04:29.427Z,99711.39
2022-12-08T21:07:00.950Z,99709.69
2022-12-08T21:09:32.202Z,99707.16
2022-12-08T21:12:03.779Z,99703.96
2022-12-08T21:14:36.250Z,99705.66
2022-12-08T21:17:07.722Z,99702.98
2022-12-08T21:19:39.379Z,99707.20
2022-12-08T21:22:10.837Z,99709.56
2022-12-08T21:24:42.378Z,99706.05
2022-12-08T21:27:14.064Z,99705.73
2022-12-08T21:29:45.541Z,99703.20
2022-12-08T21:32:17.527Z,99704.77
2022-12-08T21:34:48.881Z,99704.93
2022-12-08T21:37:19.877Z,99706.61
2022-12-08T21:39:51.852Z,99705.63
2022-12-08T21:42:40.914Z,99703.62
2022-12-08T21:45:14.278Z,99702.80
2022-12-08T21:47:46.266Z,99698.29
2022-12-08T21:50:18.511Z,99698.33
2022-12-08T21:52:51.087Z,99695.66
2022-12-08T21:55:23.831Z,99696.54
2022-12-08T21:57:57.219Z,99695.05
2022-12-08T22:00:29.850Z,99697.24
2022-12-08T22:03:01.602Z,99694.55
2022-12-08T22:05:33.467Z,99695.08
2022-12-08T22:08:05.234Z,99690.56
2022-12-08T22:10:36.919Z,99689.25
2022-12-08T22:13:08.313Z,99686.88
2022-12-08T22:15:39.624Z,99688.38
2022-12-08T22:18:11.851Z,99686.02
2022-12-08T22:20:44.565Z,99684.81
2022-12-08T22:23:15.720Z,99685.79
2022-12-08T22:25:47.624Z,99687.09
2022-12-08T22:28:18.936Z,99685.52
2022-12-08T22:30:50.234Z,99683.30
2022-12-08T22:33:21.787Z,99684.46
2022-12-08T22:36:04.711Z,99682.61
2022-12-08T22:38:37.843Z,99683.46
2022-12-08T22:41:09.545Z,99684.67
2022-12-08T22:43:41.499Z,99686.02
2022-12-08T22:46:15.551Z,99689.06
2022-12-08T22:48:46.973Z,99688.71
2022-12-08T22:51:19.340Z,99687.71
2022-12-08T22:53:51.008Z,99687.36
2022-12-08T22:56:22.151Z,99687.67
2022-12-08T22:58:53.286Z,99687.50
2022-12-08T23:01:27.819Z,99688.17
2022-12-08T23:03:59.755Z,99690.02
2022-12-08T23:06:32.761Z,99685.98
2022-12-08T23:09:04.310Z,99686.67
2022-12-08T23:11:36.252Z,99687.40
2022-12-08T23:14:07.468Z,99688.94
2022-12-08T23:16:38.953Z,99690.33
2022-12-08T23:19:10.495Z,99688.96
2022-12-08T23:21:41.717Z,99686.21
2022-12-08T23:24:12.934Z,99687.52
2022-12-08T23:26:44.039Z,99687.50
2022-12-08T23:32:04.773Z,99686.71
2022-12-08T23:34:36.360Z,99685.98
2022-12-08T23:37:07.721Z,99687.61
2022-12-08T23:39:39.475Z,99693.80
2022-12-08T23:42:11.108Z,99696.30
2022-12-08T23:44:42.900Z,99697.27
2022-12-08T23:47:14.349Z,99699.60
2022-12-08T23:49:45.717Z,99698.23
2022-12-08T23:52:17.400Z,99697.21
2022-12-08T23:54:50.739Z,99693.82
2022-12-08T23:57:22.182Z,99691.45
2022-12-08T23:59:53.150Z,99690.98
